createdAt,value
2018-07-22T08:08:12.620Z,16.00
2018-07-22T08:10:42.998Z,15.18
2018-07-22T08:13:13.266Z,13.90
2018-07-22T08:15:41.970Z,13.08
2018-07-22T08:18:11.412Z,13.50
2018-07-22T08:20:40.006Z,12.37
2018-07-22T08:23:08.663Z,12.55
2018-07-22T08:25:38.192Z,12.50
2018-07-22T08:28:06.754Z,12.82
2018-07-22T08:30:35.910Z,12.00
2018-07-22T08:33:04.497Z,13.78
2018-07-22T08:35:33.144Z,14.45
2018-07-22T08:38:01.711Z,12.43
2018-07-22T08:40:30.322Z,11.25
2018-07-22T08:42:58.952Z,12.00
2018-07-22T08:45:27.238Z,10.90
2018-07-22T08:47:56.842Z,11.12
2018-07-22T08:50:25.784Z,9.53
2018-07-22T08:52:54.457Z,9.35
2018-07-22T08:55:24.541Z,8.30
2018-07-22T08:57:53.558Z,8.95
2018-07-22T09:00:22.555Z,9.08
2018-07-22T09:02:51.264Z,8.50
2018-07-22T09:05:19.917Z,8.30
2018-07-22T09:07:49.032Z,6.22
2018-07-22T09:10:17.648Z,7.00
2018-07-22T09:12:46.237Z,6.80
2018-07-22T09:15:15.692Z,6.75
2018-07-22T09:17:45.427Z,7.50
2018-07-22T09:20:16.382Z,6.70
2018-07-22T09:22:46.619Z,7.33
2018-07-22T09:25:15.267Z,10.60
2018-07-22T09:27:44.406Z,7.35
2018-07-22T09:30:13.106Z,6.53
2018-07-22T09:32:43.162Z,6.22
2018-07-22T09:35:13.833Z,6.95
2018-07-22T09:37:42.367Z,5.92
2018-07-22T09:40:10.949Z,10.43
2018-07-22T09:42:39.572Z,8.23
2018-07-22T09:45:09.285Z,5.70
2018-07-22T09:47:37.852Z,7.05
2018-07-22T09:50:06.366Z,6.53
2018-07-22T09:52:35.847Z,6.08
2018-07-22T09:55:04.430Z,5.90
2018-07-22T09:57:34.774Z,6.42
2018-07-22T10:00:04.450Z,6.75
2018-07-22T10:02:33.172Z,7.37
2018-07-22T10:05:03.593Z,5.17
2018-07-22T10:07:33.906Z,5.95
2018-07-22T10:10:02.436Z,5.47
2018-07-22T10:12:31.085Z,5.53
2018-07-22T10:15:10.298Z,5.58
2018-07-22T10:17:40.188Z,6.60
2018-07-22T10:20:09.412Z,5.58
2018-07-22T10:22:39.126Z,4.85
2018-07-22T10:25:07.792Z,4.90
2018-07-22T10:27:36.322Z,5.20
2018-07-22T10:30:05.993Z,5.62
2018-07-22T10:32:35.572Z,5.20
2018-07-22T10:35:04.430Z,5.78
2018-07-22T10:37:33.003Z,5.95
2018-07-22T10:40:01.887Z,6.28
2018-07-22T10:42:30.504Z,6.08
2018-07-22T10:44:59.168Z,5.70
2018-07-22T10:47:27.797Z,5.58
2018-07-22T10:49:56.396Z,5.42
2018-07-22T10:52:25.703Z,5.47
2018-07-22T10:54:54.242Z,5.58
2018-07-22T10:57:22.761Z,9.08
2018-07-22T10:59:51.304Z,5.60
2018-07-22T11:02:19.886Z,6.35
2018-07-22T11:04:50.276Z,6.15
2018-07-22T11:07:18.901Z,6.05
2018-07-22T11:09:47.463Z,6.25
2018-07-22T11:12:16.032Z,6.70
2018-07-22T11:14:45.556Z,6.67
2018-07-22T11:17:14.110Z,6.67
2018-07-22T11:19:42.693Z,6.60
2018-07-22T11:22:12.422Z,6.70
2018-07-22T11:24:40.965Z,5.40
2018-07-22T11:27:09.659Z,6.03
2018-07-22T11:29:38.928Z,6.60
2018-07-22T11:32:07.645Z,5.55
2018-07-22T11:34:36.290Z,5.67
2018-07-22T11:37:04.850Z,7.10
2018-07-22T11:39:34.680Z,6.42
2018-07-22T11:42:03.313Z,5.80
2018-07-22T11:44:31.906Z,5.95
2018-07-22T11:47:02.123Z,6.00
2018-07-22T11:49:30.610Z,6.10
2018-07-22T11:51:59.338Z,6.72
2018-07-22T11:54:27.851Z,7.22
2018-07-22T11:56:56.360Z,7.28
2018-07-22T11:59:24.871Z,6.87
2018-07-22T12:01:54.051Z,7.05
2018-07-22T12:04:23.118Z,8.08
2018-07-22T12:06:52.648Z,7.62
2018-07-22T12:09:21.165Z,6.28
2018-07-22T12:11:49.794Z,6.83
2018-07-22T12:14:18.383Z,7.33
2018-07-22T12:16:46.967Z,7.33
2018-07-22T12:19:15.640Z,6.58
2018-07-22T12:21:44.277Z,6.15
2018-07-22T12:24:12.778Z,7.00
2018-07-22T12:26:42.022Z,6.75
2018-07-22T12:29:10.626Z,6.78
2018-07-22T12:31:39.194Z,6.45
2018-07-22T12:34:07.849Z,6.40
2018-07-22T12:36:36.775Z,7.00
2018-07-22T12:39:10.532Z,6.08
2018-07-22T12:41:39.213Z,6.53
2018-07-22T12:44:07.856Z,6.05
2018-07-22T12:46:36.587Z,5.95
2018-07-22T12:49:05.418Z,6.08
2018-07-22T12:51:35.161Z,5.95
2018-07-22T12:54:04.003Z,6.40
2018-07-22T12:56:32.616Z,6.53
2018-07-22T12:59:01.209Z,6.33
2018-07-22T13:01:29.807Z,6.20
2018-07-22T13:04:00.133Z,6.17
2018-07-22T13:06:29.636Z,6.83
2018-07-22T13:08:58.171Z,7.50
2018-07-22T13:11:27.249Z,6.03
2018-07-22T13:13:55.826Z,6.47
2018-07-22T13:16:27.080Z,6.20
2018-07-22T13:18:56.203Z,5.92
2018-07-22T13:21:25.388Z,6.15
2018-07-22T13:23:54.770Z,5.53
2018-07-22T13:26:23.854Z,6.10
2018-07-22T13:28:52.415Z,6.10
2018-07-22T13:31:20.995Z,5.87
2018-07-22T13:33:49.572Z,6.17
2018-07-22T13:36:18.153Z,6.00
2018-07-22T13:38:47.335Z,6.10
2018-07-22T13:41:15.988Z,6.00
2018-07-22T13:43:44.516Z,4.80
2018-07-22T13:46:13.156Z,5.47
2018-07-22T13:48:41.786Z,6.22
2018-07-22T13:51:11.197Z,5.20
2018-07-22T13:53:39.718Z,6.08
2018-07-22T13:56:08.335Z,5.53
2018-07-22T13:58:37.648Z,5.22
2018-07-22T14:01:06.958Z,4.97
2018-07-22T14:03:35.634Z,5.78
2018-07-22T14:06:04.438Z,4.75
2018-07-22T14:08:33.062Z,4.95
2018-07-22T14:11:02.264Z,5.47
2018-07-22T14:13:30.973Z,5.50
2018-07-22T14:16:00.130Z,5.53
2018-07-22T14:18:29.527Z,5.60
2018-07-22T14:20:58.072Z,5.40
2018-07-22T14:23:26.720Z,5.58
2018-07-22T14:25:55.314Z,5.22
2018-07-22T14:28:23.948Z,5.90
2018-07-22T14:30:52.680Z,5.30
2018-07-22T14:33:21.346Z,5.35
2018-07-22T14:35:50.472Z,4.90
2018-07-22T14:38:18.994Z,5.28
2018-07-22T14:40:47.599Z,5.78
2018-07-22T14:43:16.188Z,5.53
2018-07-22T14:45:44.766Z,5.30
2018-07-22T14:48:13.967Z,5.15
2018-07-22T14:50:42.477Z,5.60
2018-07-22T14:53:11.033Z,4.95
2018-07-22T14:55:39.545Z,5.65
2018-07-22T14:58:08.078Z,5.20
2018-07-22T15:00:36.600Z,5.10
2018-07-22T15:03:05.807Z,5.37
2018-07-22T15:05:34.375Z,5.47
2018-07-22T15:08:02.899Z,4.95
2018-07-22T15:10:31.447Z,6.17
2018-07-22T15:12:59.975Z,5.35
2018-07-22T15:15:28.600Z,5.60
2018-07-22T15:17:58.106Z,5.50
2018-07-22T15:20:27.307Z,5.40
2018-07-22T15:22:55.927Z,4.87
2018-07-22T15:25:24.544Z,5.40
2018-07-22T15:27:53.736Z,5.60
2018-07-22T15:30:22.283Z,5.70
2018-07-22T15:32:51.465Z,5.37
2018-07-22T15:35:20.036Z,6.30
2018-07-22T15:37:48.510Z,5.95
2018-07-22T15:40:17.442Z,5.47
2018-07-22T15:42:46.110Z,5.75
2018-07-22T15:45:14.665Z,5.70
2018-07-22T15:47:43.598Z,6.12
2018-07-22T15:50:12.143Z,5.62
2018-07-22T15:52:40.706Z,5.75
2018-07-22T15:55:09.213Z,5.58
2018-07-22T15:57:38.611Z,5.78
2018-07-22T16:00:10.124Z,6.03
2018-07-22T16:02:39.022Z,6.28
2018-07-22T16:05:07.543Z,6.17
2018-07-22T16:07:36.587Z,5.90
2018-07-22T16:10:05.796Z,6.33
2018-07-22T16:12:34.480Z,6.80
2018-07-22T16:15:03.090Z,5.85
2018-07-22T16:17:32.338Z,6.62
2018-07-22T16:20:00.877Z,5.50
2018-07-22T16:22:29.542Z,6.33
2018-07-22T16:24:58.102Z,5.90
2018-07-22T16:27:26.806Z,6.60
2018-07-22T16:29:55.464Z,6.33
2018-07-22T16:32:24.117Z,5.95
2018-07-22T16:34:52.720Z,6.40
2018-07-22T16:37:21.305Z,6.25
2018-07-22T16:39:49.905Z,6.97
2018-07-22T16:42:18.610Z,5.97
2018-07-22T16:44:47.133Z,6.45
2018-07-22T16:47:15.984Z,5.47
2018-07-22T16:49:44.563Z,5.97
2018-07-22T16:52:13.692Z,6.17
2018-07-22T16:54:42.289Z,6.28
2018-07-22T16:57:10.841Z,6.25
2018-07-22T16:59:39.441Z,6.55
2018-07-22T17:02:08.026Z,7.67
2018-07-22T17:04:36.505Z,6.50
2018-07-22T17:07:05.149Z,6.87
2018-07-22T17:09:33.767Z,6.78
2018-07-22T17:12:02.491Z,6.55
2018-07-22T17:14:31.076Z,6.35
2018-07-22T17:16:59.656Z,6.47
2018-07-22T17:19:29.305Z,6.55
2018-07-22T17:21:57.967Z,6.42
2018-07-22T17:24:27.407Z,6.20
2018-07-22T17:26:55.963Z,6.47
2018-07-22T17:29:24.535Z,7.37
2018-07-22T17:31:53.190Z,6.83
2018-07-22T17:34:21.697Z,7.25
2018-07-22T17:36:50.263Z,7.00
2018-07-22T17:39:18.761Z,6.83
2018-07-22T17:41:47.306Z,6.80
2018-07-22T17:44:15.817Z,6.37
2018-07-22T17:46:44.314Z,6.90
2018-07-22T17:49:12.808Z,8.10
2018-07-22T17:51:41.330Z,8.38
2018-07-22T17:54:09.903Z,7.30
2018-07-22T17:56:38.384Z,6.85
2018-07-22T17:59:06.985Z,6.22
2018-07-22T18:01:35.646Z,6.40
2018-07-22T18:04:04.237Z,5.92
2018-07-22T18:06:32.802Z,7.40
2018-07-22T18:09:01.366Z,6.92
2018-07-22T18:11:30.432Z,6.20
2018-07-22T18:14:01.845Z,5.72
2018-07-22T18:16:30.632Z,6.92
2018-07-22T18:19:02.693Z,6.45
2018-07-22T18:21:33.886Z,6.95
2018-07-22T18:24:04.545Z,6.95
2018-07-22T18:26:33.363Z,7.25
2018-07-22T18:29:03.567Z,6.50
2018-07-22T18:31:34.247Z,6.62
2018-07-22T18:34:02.959Z,6.72
2018-07-22T18:36:32.104Z,6.28
2018-07-22T18:39:00.696Z,8.33
2018-07-22T18:41:29.933Z,7.10
2018-07-22T18:44:00.505Z,6.80
2018-07-22T18:46:31.206Z,8.15
2018-07-22T18:49:01.612Z,7.10
2018-07-22T18:51:31.228Z,8.43
2018-07-22T18:54:00.100Z,6.70
2018-07-22T18:56:28.648Z,6.50
2018-07-22T18:58:57.562Z,7.90
2018-07-22T19:01:27.360Z,7.22
2018-07-22T19:03:57.185Z,6.78
2018-07-22T19:06:28.635Z,7.50
2018-07-22T19:08:58.221Z,7.08
2018-07-22T19:11:30.715Z,7.28
2018-07-22T19:13:59.600Z,7.03
2018-07-22T19:16:29.559Z,7.22
2018-07-22T19:19:13.374Z,6.25
2018-07-22T19:21:42.872Z,6.67
2018-07-22T19:24:11.860Z,7.60
2018-07-22T19:26:41.718Z,7.92
2018-07-22T19:29:13.092Z,8.43
2018-07-22T19:31:45.272Z,9.28
2018-07-22T19:34:14.777Z,8.40
2018-07-22T19:36:44.077Z,11.08
2018-07-22T19:39:14.591Z,8.10
2018-07-22T19:41:44.271Z,7.80
2018-07-22T19:44:14.365Z,8.25
2018-07-22T19:46:43.404Z,8.08
2018-07-22T19:49:13.150Z,7.40
2018-07-22T19:51:45.704Z,8.25
2018-07-22T19:54:16.287Z,7.65
2018-07-22T19:56:48.184Z,7.47
2018-07-22T19:59:53.425Z,8.00
2018-07-22T20:03:03.365Z,8.93
2018-07-22T20:05:32.718Z,7.87
2018-07-22T20:08:08.524Z,8.40
2018-07-22T20:10:57.415Z,7.70
2018-07-22T20:13:26.762Z,8.75
2018-07-22T20:15:57.426Z,8.55
2018-07-22T20:21:10.112Z,7.35
2018-07-22T20:23:39.011Z,7.65
2018-07-22T20:26:08.315Z,8.50
2018-07-22T20:28:37.112Z,7.60
2018-07-22T20:31:07.118Z,10.32
2018-07-22T20:33:37.451Z,8.25
2018-07-22T20:36:07.686Z,7.92
2018-07-22T20:38:37.078Z,8.65
2018-07-22T20:41:07.783Z,9.30
2018-07-22T20:43:37.900Z,8.38
2018-07-22T20:46:08.548Z,7.60
2018-07-22T20:48:37.267Z,7.50
2018-07-22T20:51:06.901Z,7.90
2018-07-22T20:53:38.184Z,7.87
2018-07-22T20:56:06.994Z,9.00
2018-07-22T20:58:36.557Z,7.47
2018-07-22T21:01:06.787Z,7.92
2018-07-22T21:03:35.625Z,9.60
2018-07-22T21:06:05.268Z,9.53
2018-07-22T21:08:34.545Z,9.58
2018-07-22T21:11:04.423Z,8.78
2018-07-22T21:13:34.890Z,8.70
2018-07-22T21:16:04.983Z,9.30
2018-07-22T21:18:34.977Z,12.60
2018-07-22T21:21:03.603Z,9.63
2018-07-22T21:23:33.904Z,9.65
2018-07-22T21:26:04.132Z,10.30
2018-07-22T21:28:32.887Z,11.65
2018-07-22T21:31:01.556Z,11.30
2018-07-22T21:33:31.246Z,10.18
2018-07-22T21:35:59.806Z,9.90
2018-07-22T21:38:30.116Z,9.85
2018-07-22T21:41:00.857Z,9.25
2018-07-22T21:43:30.709Z,10.18
2018-07-22T21:46:00.003Z,9.50
2018-07-22T21:48:31.244Z,11.18
2018-07-22T21:51:00.006Z,12.07
2018-07-22T21:53:29.669Z,10.88
2018-07-22T21:55:59.565Z,11.10
2018-07-22T21:58:29.217Z,10.60
2018-07-22T22:01:01.498Z,11.57
2018-07-22T22:03:30.679Z,11.03
2018-07-22T22:05:59.634Z,10.48
2018-07-22T22:08:29.102Z,12.50
2018-07-22T22:11:00.914Z,11.20
2018-07-22T22:13:31.104Z,10.85
2018-07-22T22:16:00.346Z,10.85
2018-07-22T22:18:30.160Z,11.38
2018-07-22T22:20:58.884Z,11.55
2018-07-22T22:23:30.348Z,12.40
2018-07-22T22:25:58.935Z,10.82
2018-07-22T22:28:32.176Z,10.82
2018-07-22T22:31:01.357Z,11.30
2018-07-22T22:33:30.596Z,11.28
2018-07-22T22:36:01.595Z,10.50
2018-07-22T22:38:30.456Z,11.53
2018-07-22T22:41:01.823Z,11.40
2018-07-22T22:43:30.689Z,11.83
